createdAt,value
2023-03-16T00:00:01.067Z,3.83
2023-03-16T00:02:30.414Z,3.85
2023-03-16T00:04:58.838Z,3.88
2023-03-16T00:07:29.220Z,3.91
2023-03-16T00:09:58.019Z,3.92
2023-03-16T00:12:26.730Z,3.94
2023-03-16T00:14:56.659Z,3.96
2023-03-16T00:17:26.873Z,3.96
2023-03-16T00:19:59.266Z,4.00
2023-03-16T00:22:30.220Z,4.02
2023-03-16T00:24:59.291Z,4.02
2023-03-16T00:27:28.187Z,4.02
2023-03-16T00:29:58.362Z,4.04
2023-03-16T00:32:30.436Z,4.04
2023-03-16T00:34:59.312Z,4.05
2023-03-16T00:37:29.355Z,4.07
2023-03-16T00:39:59.275Z,4.06
2023-03-16T00:42:29.957Z,4.05
2023-03-16T00:45:01.847Z,4.06
2023-03-16T00:47:33.339Z,4.02
2023-03-16T00:50:04.330Z,4.03
2023-03-16T00:52:35.381Z,4.02
2023-03-16T00:55:05.005Z,4.01
2023-03-16T00:57:33.534Z,4.05
2023-03-16T01:00:12.851Z,4.06
2023-03-16T01:02:46.838Z,4.05
2023-03-16T01:05:16.598Z,4.08
2023-03-16T01:07:45.240Z,4.09
2023-03-16T01:10:14.942Z,4.12
2023-03-16T01:12:45.653Z,4.14
2023-03-16T01:15:15.740Z,4.16
2023-03-16T01:17:44.268Z,4.16
2023-03-16T01:20:19.353Z,4.18
2023-03-16T01:22:47.795Z,4.19
2023-03-16T01:25:16.473Z,4.21
2023-03-16T01:27:44.981Z,4.23
2023-03-16T01:30:15.540Z,4.25
2023-03-16T01:32:44.997Z,4.28
2023-03-16T01:35:14.146Z,4.29
2023-03-16T01:37:42.709Z,4.31
2023-03-16T01:40:13.495Z,4.32
2023-03-16T01:42:49.729Z,4.30
2023-03-16T01:46:22.634Z,4.28
2023-03-16T01:49:05.874Z,4.27
2023-03-16T01:51:43.743Z,4.29
2023-03-16T01:54:23.111Z,4.30
2023-03-16T01:56:59.788Z,4.30
2023-03-16T01:59:33.716Z,4.31
2023-03-16T02:02:03.960Z,4.33
2023-03-16T02:04:44.410Z,4.33
2023-03-16T02:07:17.267Z,4.32
2023-03-16T02:09:49.541Z,4.34
2023-03-16T02:12:20.263Z,4.36
2023-03-16T02:14:51.103Z,4.37
2023-03-16T02:17:22.572Z,4.39
2023-03-16T02:20:11.139Z,4.42
2023-03-16T02:22:48.041Z,4.42
2023-03-16T02:25:20.086Z,4.39
2023-03-16T02:28:02.627Z,4.41
2023-03-16T02:30:33.208Z,4.39
2023-03-16T02:33:02.516Z,4.39
2023-03-16T02:35:31.473Z,4.41
2023-03-16T02:38:00.193Z,4.41
2023-03-16T02:40:32.487Z,4.42
2023-03-16T02:43:05.688Z,4.42
2023-03-16T02:45:42.608Z,4.43
2023-03-16T02:48:16.319Z,4.46
2023-03-16T02:50:48.269Z,4.48
2023-03-16T02:53:17.580Z,4.50
2023-03-16T02:55:46.508Z,4.52
2023-03-16T02:58:15.072Z,4.56
2023-03-16T03:00:45.410Z,4.59
2023-03-16T03:03:16.065Z,4.62
2023-03-16T03:05:44.618Z,4.65
2023-03-16T03:08:23.244Z,4.69
2023-03-16T03:10:51.818Z,4.73
2023-03-16T03:13:27.001Z,4.77
2023-03-16T03:15:57.274Z,4.79
2023-03-16T03:18:26.611Z,4.81
2023-03-16T03:20:55.807Z,4.85
2023-03-16T03:23:24.259Z,4.88
2023-03-16T03:25:52.625Z,4.89
2023-03-16T03:28:22.261Z,4.91
2023-03-16T03:30:52.176Z,4.93
2023-03-16T03:33:23.136Z,4.93
2023-03-16T03:35:57.864Z,4.96
2023-03-16T03:38:27.856Z,4.96
2023-03-16T03:40:59.593Z,4.97
2023-03-16T03:43:28.206Z,4.99
2023-03-16T03:46:00.292Z,5.00
2023-03-16T03:48:30.469Z,5.03
2023-03-16T03:50:59.044Z,5.04
2023-03-16T03:53:28.066Z,5.06
2023-03-16T03:55:57.207Z,5.06
2023-03-16T03:58:25.862Z,5.08
2023-03-16T04:00:55.249Z,5.08
2023-03-16T04:03:23.845Z,5.09
2023-03-16T04:05:53.911Z,5.09
2023-03-16T04:08:22.436Z,5.08
2023-03-16T04:10:51.521Z,5.08
2023-03-16T04:13:19.985Z,5.10
2023-03-16T04:15:48.414Z,5.09
2023-03-16T04:18:16.870Z,5.09
2023-03-16T04:20:45.396Z,5.09
2023-03-16T04:23:16.769Z,5.09
2023-03-16T04:25:45.464Z,5.09
2023-03-16T04:28:17.837Z,5.08
2023-03-16T04:30:46.344Z,5.08
2023-03-16T04:33:17.056Z,5.08
2023-03-16T04:35:46.215Z,5.09
2023-03-16T04:38:16.070Z,5.11
2023-03-16T04:40:45.132Z,5.10
2023-03-16T04:43:13.704Z,5.09
2023-03-16T04:45:42.551Z,5.10
2023-03-16T04:48:10.993Z,5.11
2023-03-16T04:50:39.432Z,5.10
2023-03-16T04:53:08.218Z,5.10
2023-03-16T04:55:38.212Z,5.10
2023-03-16T04:58:06.847Z,5.09
2023-03-16T05:00:35.520Z,5.08
2023-03-16T05:03:04.386Z,5.09
2023-03-16T05:05:33.240Z,5.06
2023-03-16T05:08:02.502Z,5.08
2023-03-16T05:10:31.236Z,5.07
2023-03-16T05:13:01.441Z,5.09
2023-03-16T05:15:30.129Z,5.08
2023-03-16T05:17:58.816Z,5.08
2023-03-16T05:20:28.203Z,5.09
2023-03-16T05:22:57.154Z,5.11
2023-03-16T05:25:26.265Z,5.13
2023-03-16T05:27:57.076Z,5.14
2023-03-16T05:30:27.845Z,5.16
2023-03-16T05:32:58.089Z,5.16
2023-03-16T05:35:28.186Z,5.15
2023-03-16T05:37:57.299Z,5.17
2023-03-16T05:40:26.802Z,5.17
2023-03-16T05:43:00.504Z,5.17
2023-03-16T05:45:30.574Z,5.17
2023-03-16T05:47:59.169Z,5.17
2023-03-16T05:50:28.739Z,5.16
2023-03-16T05:52:57.456Z,5.13
2023-03-16T05:55:26.076Z,5.15
2023-03-16T05:57:55.023Z,5.15
2023-03-16T06:00:25.915Z,5.17
2023-03-16T06:02:56.247Z,5.20
2023-03-16T06:05:25.795Z,5.22
2023-03-16T06:07:54.653Z,5.25
2023-03-16T06:10:23.900Z,5.28
2023-03-16T06:12:52.337Z,5.30
2023-03-16T06:15:24.981Z,5.32
2023-03-16T06:17:55.086Z,5.35
2023-03-16T06:20:23.654Z,5.37
2023-03-16T06:23:07.788Z,5.40
2023-03-16T06:25:37.769Z,5.43
2023-03-16T06:28:08.129Z,5.47
2023-03-16T06:30:38.377Z,5.51
2023-03-16T06:33:08.843Z,5.55
2023-03-16T06:35:37.825Z,5.59
2023-03-16T06:38:06.720Z,5.60
2023-03-16T06:40:35.531Z,5.64
2023-03-16T06:43:04.015Z,5.67
2023-03-16T06:45:32.985Z,5.71
2023-03-16T06:48:01.680Z,5.74
2023-03-16T06:50:31.610Z,5.77
2023-03-16T06:53:00.262Z,5.81
2023-03-16T06:55:29.332Z,5.84
2023-03-16T06:57:58.027Z,5.88
2023-03-16T07:00:27.941Z,5.90
2023-03-16T07:05:28.622Z,5.94
2023-03-16T07:07:58.625Z,5.97
2023-03-16T07:10:28.352Z,5.99
2023-03-16T07:12:57.491Z,6.05
2023-03-16T07:15:26.794Z,6.08
2023-03-16T07:17:55.767Z,6.11
2023-03-16T07:20:25.061Z,6.14
2023-03-16T07:22:53.649Z,6.16
2023-03-16T07:25:28.116Z,6.19
2023-03-16T07:27:57.789Z,6.20
2023-03-16T07:30:26.837Z,6.21
2023-03-16T07:32:56.345Z,6.21
2023-03-16T07:35:26.760Z,6.23
2023-03-16T07:37:55.870Z,6.26
2023-03-16T07:40:26.039Z,6.32
2023-03-16T07:42:54.801Z,6.36
2023-03-16T07:45:23.276Z,6.43
2023-03-16T07:47:52.104Z,6.51
2023-03-16T07:50:20.775Z,6.58
2023-03-16T07:52:49.535Z,6.62
2023-03-16T07:55:18.181Z,6.68
2023-03-16T07:57:48.527Z,6.75
2023-03-16T08:00:23.831Z,6.81
2023-03-16T08:02:53.915Z,6.88
2023-03-16T08:05:22.884Z,6.95
2023-03-16T08:07:51.570Z,7.00
2023-03-16T08:10:21.114Z,7.03
2023-03-16T08:12:51.700Z,7.07
2023-03-16T08:15:21.832Z,7.10
2023-03-16T08:17:50.629Z,7.13
2023-03-16T08:20:19.523Z,7.21
2023-03-16T08:22:49.834Z,7.27
2023-03-16T08:25:19.928Z,7.35
2023-03-16T08:27:50.296Z,7.42
2023-03-16T08:30:19.173Z,7.47
2023-03-16T08:32:48.010Z,7.48
2023-03-16T08:35:17.645Z,7.46
2023-03-16T08:37:46.362Z,7.44
2023-03-16T08:40:16.310Z,7.47
2023-03-16T08:42:45.248Z,7.51
2023-03-16T08:45:15.150Z,7.54
2023-03-16T08:47:43.934Z,7.52
2023-03-16T08:50:15.689Z,7.50
2023-03-16T08:52:44.474Z,7.52
2023-03-16T08:55:13.378Z,7.53
2023-03-16T08:57:42.621Z,7.52
2023-03-16T09:00:14.560Z,7.50
2023-03-16T09:02:45.989Z,7.50
2023-03-16T09:07:48.901Z,7.55
2023-03-16T09:10:19.102Z,7.58
2023-03-16T09:12:52.563Z,7.63
2023-03-16T09:15:22.620Z,7.65
2023-03-16T09:17:53.582Z,7.69
2023-03-16T09:20:26.350Z,7.75
2023-03-16T09:22:56.485Z,7.81
2023-03-16T09:25:25.432Z,7.87
2023-03-16T09:28:01.909Z,7.87
2023-03-16T09:30:31.435Z,7.88
2023-03-16T09:33:02.412Z,7.86
2023-03-16T09:35:34.347Z,7.85
2023-03-16T09:38:06.674Z,7.85
2023-03-16T09:40:38.275Z,7.88
2023-03-16T09:43:47.213Z,7.97
2023-03-16T09:46:27.067Z,8.06
2023-03-16T09:48:58.578Z,8.17
2023-03-16T09:51:44.518Z,8.27
2023-03-16T09:54:26.696Z,8.35
2023-03-16T09:56:57.521Z,8.38
2023-03-16T09:59:28.623Z,8.47
2023-03-16T10:02:27.632Z,8.70
2023-03-16T10:05:06.614Z,8.87
2023-03-16T10:07:47.136Z,9.07
2023-03-16T10:10:57.925Z,9.15
2023-03-16T10:13:37.601Z,9.24
2023-03-16T10:16:12.609Z,9.32
2023-03-16T10:18:46.191Z,9.42
2023-03-16T10:21:19.602Z,9.55
2023-03-16T10:23:49.909Z,9.57
2023-03-16T10:26:25.201Z,9.55
2023-03-16T10:28:55.122Z,9.47
2023-03-16T10:31:25.254Z,9.50
2023-03-16T10:34:00.821Z,9.52
2023-03-16T10:36:35.738Z,9.51
2023-03-16T10:39:07.596Z,9.50
2023-03-16T10:41:39.018Z,9.44
2023-03-16T10:44:13.372Z,9.43
2023-03-16T10:46:48.316Z,9.40
2023-03-16T10:49:27.509Z,9.45
2023-03-16T10:51:59.778Z,9.45
2023-03-16T10:54:32.946Z,9.44
2023-03-16T10:57:03.660Z,9.34
2023-03-16T10:59:35.679Z,9.28
2023-03-16T11:02:17.153Z,9.22
2023-03-16T11:04:46.201Z,9.18
2023-03-16T11:07:20.951Z,9.15
2023-03-16T11:09:53.675Z,9.13
2023-03-16T11:12:28.898Z,9.16
2023-03-16T11:15:07.512Z,9.13
2023-03-16T11:17:45.384Z,9.10
2023-03-16T11:20:18.388Z,9.04
2023-03-16T11:22:49.522Z,9.01
2023-03-16T11:25:26.892Z,8.97
2023-03-16T11:28:08.923Z,8.97
2023-03-16T11:30:43.989Z,8.92
2023-03-16T11:33:15.564Z,8.92
2023-03-16T11:35:59.072Z,8.91
2023-03-16T11:38:36.298Z,8.89
2023-03-16T11:41:09.357Z,8.93
2023-03-16T11:43:54.100Z,8.94
2023-03-16T11:46:26.485Z,8.96
2023-03-16T11:49:21.666Z,8.92
2023-03-16T11:52:03.012Z,8.87
2023-03-16T11:54:49.357Z,8.88
2023-03-16T11:57:35.254Z,8.87
2023-03-16T12:00:28.824Z,8.89
2023-03-16T12:03:33.788Z,8.95
2023-03-16T12:06:22.988Z,9.08
2023-03-16T12:09:23.083Z,9.17
2023-03-16T12:12:01.012Z,9.25
2023-03-16T12:14:42.772Z,9.28
2023-03-16T12:17:19.593Z,9.27
2023-03-16T12:19:55.187Z,9.27
2023-03-16T12:22:31.062Z,9.28
2023-03-16T12:24:59.787Z,9.35
2023-03-16T12:27:34.459Z,9.53
2023-03-16T12:30:21.621Z,9.72
2023-03-16T12:32:55.930Z,9.97
2023-03-16T12:35:37.800Z,10.17
2023-03-16T12:38:33.347Z,10.33
2023-03-16T12:41:18.107Z,10.48
2023-03-16T12:44:04.310Z,10.67
2023-03-16T12:46:43.020Z,10.83
2023-03-16T12:49:11.866Z,10.94
2023-03-16T12:51:42.916Z,11.01
2023-03-16T12:54:21.797Z,11.14
2023-03-16T12:56:53.875Z,11.30
2023-03-16T12:59:26.247Z,11.40
2023-03-16T13:02:01.037Z,11.52
2023-03-16T13:04:35.092Z,11.53
2023-03-16T13:07:07.984Z,11.44
2023-03-16T13:09:42.215Z,11.48
2023-03-16T13:12:11.223Z,11.52
2023-03-16T13:14:49.694Z,11.52
2023-03-16T13:17:37.835Z,11.57
2023-03-16T13:20:31.400Z,11.60
2023-03-16T13:23:23.241Z,11.58
2023-03-16T13:26:12.410Z,11.51
2023-03-16T13:28:42.078Z,11.44
2023-03-16T13:31:28.062Z,11.45
2023-03-16T13:34:00.383Z,11.48
2023-03-16T13:36:35.629Z,11.47
2023-03-16T13:39:16.541Z,11.47
2023-03-16T13:41:56.509Z,11.51
2023-03-16T13:44:28.529Z,11.60
2023-03-16T13:46:58.976Z,11.71
2023-03-16T13:49:28.088Z,11.87
2023-03-16T13:52:00.126Z,12.13
2023-03-16T13:54:31.060Z,12.67
2023-03-16T13:57:07.279Z,13.13
2023-03-16T13:59:36.423Z,13.67
2023-03-16T14:02:20.202Z,14.05
2023-03-16T14:04:48.977Z,14.59
2023-03-16T14:07:20.613Z,14.87
2023-03-16T14:09:49.942Z,14.67
2023-03-16T14:12:21.489Z,14.71
2023-03-16T14:14:56.391Z,15.03
2023-03-16T14:17:26.955Z,15.02
2023-03-16T14:20:02.268Z,14.77
2023-03-16T14:22:37.036Z,14.56
2023-03-16T14:25:07.941Z,14.35
2023-03-16T14:27:46.941Z,14.08
2023-03-16T14:30:24.437Z,13.81
2023-03-16T14:33:02.824Z,13.54
2023-03-16T14:35:34.565Z,13.35
2023-03-16T14:38:21.767Z,13.19
2023-03-16T14:40:56.203Z,13.03
2023-03-16T14:43:32.801Z,12.84
2023-03-16T14:46:04.107Z,12.72
2023-03-16T14:48:35.440Z,12.65
2023-03-16T14:51:06.495Z,12.61
2023-03-16T14:53:34.955Z,12.57
2023-03-16T14:56:03.845Z,12.51
2023-03-16T14:58:34.181Z,12.55
2023-03-16T15:01:04.021Z,12.53
2023-03-16T15:03:38.021Z,12.58
2023-03-16T15:06:07.082Z,12.75
2023-03-16T15:08:43.918Z,12.93
2023-03-16T15:11:12.972Z,12.99
2023-03-16T15:14:03.835Z,13.01
2023-03-16T15:16:34.255Z,12.95
2023-03-16T15:19:04.346Z,12.88
2023-03-16T15:21:33.091Z,12.90
2023-03-16T15:24:02.204Z,12.88
2023-03-16T15:26:32.799Z,12.85
2023-03-16T15:29:07.575Z,12.77
2023-03-16T15:31:36.206Z,12.72
2023-03-16T15:34:06.495Z,12.65
2023-03-16T15:36:34.852Z,12.64
2023-03-16T15:39:03.252Z,12.58
2023-03-16T15:41:41.451Z,12.49
2023-03-16T15:44:15.961Z,12.41
2023-03-16T15:46:44.720Z,12.37
2023-03-16T15:49:14.654Z,12.39
2023-03-16T15:51:43.273Z,12.41
2023-03-16T15:54:14.097Z,12.40
2023-03-16T15:56:54.263Z,12.37
2023-03-16T15:59:25.060Z,12.33
2023-03-16T16:01:53.747Z,12.43
2023-03-16T16:04:25.809Z,12.67
2023-03-16T16:06:55.545Z,12.99
2023-03-16T16:09:24.354Z,13.25
2023-03-16T16:11:53.396Z,13.37
2023-03-16T16:14:28.000Z,13.54
2023-03-16T16:16:56.689Z,13.66
2023-03-16T16:19:27.666Z,13.81
2023-03-16T16:21:56.355Z,14.04
2023-03-16T16:24:25.295Z,14.24
2023-03-16T16:26:55.801Z,14.45
2023-03-16T16:29:26.919Z,14.16
2023-03-16T16:31:55.955Z,13.78
2023-03-16T16:34:28.109Z,13.43
2023-03-16T16:36:58.999Z,13.13
2023-03-16T16:39:27.850Z,12.88
2023-03-16T16:41:58.075Z,12.76
2023-03-16T16:44:34.446Z,12.70
2023-03-16T16:47:04.626Z,12.65
2023-03-16T16:49:35.300Z,12.56
2023-03-16T16:52:03.805Z,12.45
2023-03-16T16:54:33.543Z,12.27
2023-03-16T16:57:03.152Z,12.05
2023-03-16T16:59:34.332Z,11.85
2023-03-16T17:02:14.378Z,11.67
2023-03-16T17:04:44.396Z,11.51
2023-03-16T17:07:13.950Z,11.33
2023-03-16T17:09:42.438Z,11.16
2023-03-16T17:12:18.601Z,10.97
2023-03-16T17:14:47.227Z,10.81
2023-03-16T17:17:18.014Z,10.66
2023-03-16T17:19:49.216Z,10.50
2023-03-16T17:22:24.876Z,10.36
2023-03-16T17:25:21.373Z,10.22
2023-03-16T17:27:52.074Z,10.08
2023-03-16T17:30:38.264Z,9.97
2023-03-16T17:33:15.245Z,9.85
2023-03-16T17:35:45.888Z,9.73
2023-03-16T17:38:22.106Z,9.63
2023-03-16T17:40:52.588Z,9.50
2023-03-16T17:43:23.718Z,9.38
2023-03-16T17:45:53.580Z,9.28
2023-03-16T17:48:25.541Z,9.19
2023-03-16T17:50:55.451Z,9.09
2023-03-16T17:53:23.884Z,9.03
2023-03-16T17:55:52.547Z,8.94
2023-03-16T17:58:29.020Z,8.89
2023-03-16T18:00:58.681Z,8.83
2023-03-16T18:03:30.746Z,8.79
2023-03-16T18:06:01.454Z,8.74
2023-03-16T18:08:36.094Z,8.74
2023-03-16T18:11:10.857Z,8.74
2023-03-16T18:13:42.567Z,8.74
2023-03-16T18:16:19.939Z,8.75
2023-03-16T18:18:48.641Z,8.76
2023-03-16T18:21:26.479Z,8.77
2023-03-16T18:23:56.196Z,8.78
2023-03-16T18:26:25.276Z,8.77
2023-03-16T18:28:56.283Z,8.79
2023-03-16T18:31:27.775Z,8.78
2023-03-16T18:33:59.986Z,8.78
2023-03-16T18:36:34.164Z,8.78
2023-03-16T18:39:05.800Z,8.79
2023-03-16T18:41:36.067Z,8.78
2023-03-16T18:44:18.507Z,8.77
2023-03-16T18:46:48.426Z,8.78
2023-03-16T18:49:22.900Z,8.79
2023-03-16T18:51:55.495Z,8.79
2023-03-16T18:54:28.398Z,8.79
2023-03-16T18:56:58.734Z,8.78
2023-03-16T18:59:34.585Z,8.77
2023-03-16T19:02:06.267Z,8.76
2023-03-16T19:04:35.739Z,8.75
2023-03-16T19:07:10.953Z,8.74
2023-03-16T19:09:42.728Z,8.72
2023-03-16T19:12:16.996Z,8.71
2023-03-16T19:14:45.604Z,8.69
2023-03-16T19:17:14.095Z,8.67
2023-03-16T19:19:43.056Z,8.66
2023-03-16T19:22:21.272Z,8.67
2023-03-16T19:24:53.521Z,8.65
2023-03-16T19:27:26.576Z,8.66
2023-03-16T19:29:56.774Z,8.67
2023-03-16T19:32:25.310Z,8.67
2023-03-16T19:34:53.879Z,8.69
2023-03-16T19:37:25.586Z,8.69
2023-03-16T19:39:54.417Z,8.68
2023-03-16T19:42:33.068Z,8.69
2023-03-16T19:45:02.238Z,8.67
2023-03-16T19:47:32.993Z,8.66
2023-03-16T19:50:04.328Z,8.66
2023-03-16T19:52:34.457Z,8.66
2023-03-16T19:55:03.141Z,8.63
2023-03-16T19:57:31.844Z,8.62
2023-03-16T20:00:00.337Z,8.61
2023-03-16T20:02:40.947Z,8.59
2023-03-16T20:05:19.933Z,8.57
2023-03-16T20:07:50.340Z,8.55
2023-03-16T20:10:22.849Z,8.55
2023-03-16T20:12:56.346Z,8.54
2023-03-16T20:15:34.037Z,8.54
2023-03-16T20:18:03.107Z,8.52
2023-03-16T20:20:34.516Z,8.55
2023-03-16T20:23:17.638Z,8.53
2023-03-16T20:25:47.754Z,8.54
2023-03-16T20:28:22.450Z,8.54
2023-03-16T20:30:52.040Z,8.56
2023-03-16T20:33:24.284Z,8.59
2023-03-16T20:35:54.755Z,8.61
2023-03-16T20:38:25.545Z,8.63
2023-03-16T20:40:56.326Z,8.64
2023-03-16T20:43:28.345Z,8.67
2023-03-16T20:45:59.848Z,8.70
2023-03-16T20:48:30.107Z,8.71
2023-03-16T20:51:01.696Z,8.72
2023-03-16T20:53:31.523Z,8.74
2023-03-16T20:56:01.628Z,8.76
2023-03-16T20:58:37.062Z,8.78
2023-03-16T21:01:05.993Z,8.82
2023-03-16T21:03:39.446Z,8.85
2023-03-16T21:06:22.292Z,8.87
2023-03-16T21:08:53.602Z,8.92
2023-03-16T21:11:26.632Z,8.96
2023-03-16T21:13:56.329Z,8.99
2023-03-16T21:16:25.378Z,9.02
2023-03-16T21:18:53.916Z,9.04
2023-03-16T21:21:22.599Z,9.05
2023-03-16T21:23:52.789Z,9.06
2023-03-16T21:26:24.730Z,9.07
2023-03-16T21:28:58.493Z,9.07
2023-03-16T21:31:27.984Z,9.09
2023-03-16T21:33:57.035Z,9.08
2023-03-16T21:36:27.974Z,9.10
2023-03-16T21:38:58.501Z,9.10
2023-03-16T21:41:27.733Z,9.10
2023-03-16T21:43:56.972Z,9.11
2023-03-16T21:46:29.226Z,9.11
2023-03-16T21:48:58.112Z,9.12
2023-03-16T21:51:31.414Z,9.11
2023-03-16T21:54:01.725Z,9.12
2023-03-16T21:56:30.385Z,9.12
2023-03-16T21:59:00.082Z,9.12
2023-03-16T22:01:33.015Z,9.12
2023-03-16T22:04:06.547Z,9.11
2023-03-16T22:06:35.357Z,9.11
2023-03-16T22:09:05.931Z,9.11
2023-03-16T22:11:35.180Z,9.10
2023-03-16T22:14:03.660Z,9.11
2023-03-16T22:16:36.332Z,9.08
2023-03-16T22:19:05.997Z,9.08
2023-03-16T22:21:38.201Z,9.05
2023-03-16T22:24:16.424Z,9.03
2023-03-16T22:26:44.914Z,8.99
2023-03-16T22:29:23.432Z,8.95
2023-03-16T22:31:55.510Z,8.92
2023-03-16T22:34:32.202Z,8.90
2023-03-16T22:37:02.644Z,8.86
2023-03-16T22:39:38.982Z,8.84
2023-03-16T22:42:27.425Z,8.79
2023-03-16T22:44:56.198Z,8.75
2023-03-16T22:47:27.648Z,8.71
2023-03-16T22:49:56.753Z,8.62
2023-03-16T22:52:32.204Z,8.52
2023-03-16T22:55:03.536Z,8.43
2023-03-16T22:57:34.044Z,8.37
2023-03-16T23:00:11.321Z,8.32
2023-03-16T23:02:39.975Z,8.28
2023-03-16T23:05:29.349Z,8.21
2023-03-16T23:08:02.643Z,8.13
2023-03-16T23:10:33.230Z,8.09
2023-03-16T23:13:02.134Z,8.05
2023-03-16T23:15:35.373Z,8.00
2023-03-16T23:18:03.841Z,7.94
2023-03-16T23:20:33.693Z,7.90
2023-03-16T23:23:02.654Z,7.90
2023-03-16T23:25:42.730Z,7.90
2023-03-16T23:28:16.884Z,7.91
2023-03-16T23:30:45.639Z,7.89
2023-03-16T23:33:17.645Z,7.92
2023-03-16T23:35:46.912Z,7.93
2023-03-16T23:38:16.212Z,7.94
2023-03-16T23:40:47.889Z,7.95
2023-03-16T23:43:16.335Z,7.94
2023-03-16T23:45:48.024Z,7.93
2023-03-16T23:48:19.232Z,7.92
2023-03-16T23:50:50.888Z,7.92
2023-03-16T23:53:20.579Z,7.93
2023-03-16T23:55:50.893Z,7.94
2023-03-16T23:58:19.763Z,7.94
